createdAt,value
2023-03-26T00:00:51.924Z,73.71
2023-03-26T00:03:18.317Z,73.61
2023-03-26T00:05:45.888Z,73.57
2023-03-26T00:08:12.355Z,73.82
2023-03-26T00:10:40.513Z,73.78
2023-03-26T00:13:07.566Z,73.23
2023-03-26T00:15:35.361Z,73.10
2023-03-26T00:18:02.042Z,73.44
2023-03-26T00:20:30.710Z,73.67
2023-03-26T00:22:57.121Z,72.92
2023-03-26T00:25:23.410Z,73.33
2023-03-26T00:27:50.575Z,73.23
2023-03-26T00:30:17.132Z,73.24
2023-03-26T00:32:43.898Z,73.53
2023-03-26T00:35:20.451Z,73.91
2023-03-26T00:37:46.749Z,73.55
2023-03-26T00:40:13.185Z,73.79
2023-03-26T00:42:39.666Z,73.38
2023-03-26T00:45:07.018Z,72.14
2023-03-26T00:47:34.197Z,72.26
2023-03-26T00:50:00.578Z,72.83
2023-03-26T00:52:27.102Z,72.54
2023-03-26T00:54:53.780Z,72.21
2023-03-26T00:57:32.962Z,72.49
2023-03-26T01:00:01.711Z,72.45
2023-03-26T01:02:28.070Z,72.60
2023-03-26T01:04:58.747Z,72.43
2023-03-26T01:07:26.561Z,73.11
2023-03-26T01:09:53.812Z,72.82
2023-03-26T01:12:23.933Z,72.36
2023-03-26T01:14:52.934Z,72.18
2023-03-26T01:17:19.322Z,72.27
2023-03-26T01:19:53.511Z,72.29
2023-03-26T01:22:23.800Z,72.62
2023-03-26T01:24:50.827Z,72.22
2023-03-26T01:27:40.033Z,72.40
2023-03-26T01:30:24.407Z,72.77
2023-03-26T01:33:06.098Z,71.93
2023-03-26T01:35:54.388Z,72.96
2023-03-26T01:38:35.795Z,72.99
2023-03-26T01:41:13.960Z,72.81
2023-03-26T01:43:54.118Z,73.14
2023-03-26T01:46:23.471Z,73.02
2023-03-26T01:48:49.907Z,73.03
2023-03-26T01:51:27.558Z,72.97
2023-03-26T01:53:55.245Z,72.68
2023-03-26T01:56:30.527Z,73.07
2023-03-26T01:59:10.657Z,73.02
2023-03-26T02:01:45.350Z,73.32
2023-03-26T02:04:33.123Z,73.18
2023-03-26T02:07:08.743Z,73.49
2023-03-26T02:09:43.192Z,73.66
2023-03-26T02:12:09.841Z,73.08
2023-03-26T02:14:36.314Z,73.17
2023-03-26T02:17:02.757Z,73.33
2023-03-26T02:19:29.062Z,73.72
2023-03-26T02:21:55.346Z,73.77
2023-03-26T02:24:21.659Z,73.38
2023-03-26T02:26:48.024Z,73.64
2023-03-26T02:29:15.302Z,73.85
2023-03-26T02:31:41.647Z,73.42
2023-03-26T02:34:07.979Z,73.45
2023-03-26T02:36:34.357Z,73.76
2023-03-26T02:39:00.702Z,73.02
2023-03-26T02:41:27.062Z,72.76
2023-03-26T02:43:53.397Z,73.03
2023-03-26T02:46:19.821Z,72.83
2023-03-26T02:48:46.184Z,72.52
2023-03-26T02:51:12.534Z,72.46
2023-03-26T02:53:38.905Z,72.21
2023-03-26T02:56:05.699Z,72.82
2023-03-26T02:58:32.008Z,72.50
2023-03-26T03:00:58.339Z,72.27
2023-03-26T03:03:26.693Z,72.64
2023-03-26T03:05:55.009Z,72.74
2023-03-26T03:08:23.958Z,72.27
2023-03-26T03:11:22.656Z,72.56
2023-03-26T03:13:49.278Z,72.41
2023-03-26T03:16:16.218Z,72.22
2023-03-26T03:18:42.692Z,72.64
2023-03-26T03:21:08.994Z,72.51
2023-03-26T03:23:35.382Z,72.42
2023-03-26T03:26:01.745Z,73.31
2023-03-26T03:28:28.033Z,73.80
2023-03-26T03:30:54.347Z,73.41
2023-03-26T03:33:20.925Z,73.43
2023-03-26T03:35:48.789Z,73.67
2023-03-26T03:38:16.763Z,73.37
2023-03-26T03:40:43.746Z,74.01
2023-03-26T03:43:10.141Z,74.94
2023-03-26T03:45:36.432Z,73.53
2023-03-26T03:48:03.004Z,74.27
2023-03-26T03:50:29.501Z,73.47
2023-03-26T03:52:55.785Z,74.23
2023-03-26T03:55:22.093Z,73.87
2023-03-26T03:57:48.410Z,74.19
2023-03-26T04:00:15.311Z,74.01
2023-03-26T04:02:41.823Z,74.17
2023-03-26T04:05:08.419Z,75.19
2023-03-26T04:07:34.763Z,74.46
2023-03-26T04:10:01.499Z,75.67
2023-03-26T04:12:28.700Z,75.18
2023-03-26T04:14:55.883Z,75.85
2023-03-26T04:17:22.780Z,75.48
2023-03-26T04:19:50.686Z,76.29
2023-03-26T04:22:17.194Z,77.09
2023-03-26T04:24:43.792Z,77.08
2023-03-26T04:27:15.306Z,76.48
2023-03-26T04:29:44.262Z,76.66
2023-03-26T04:32:16.631Z,77.20
2023-03-26T04:34:42.960Z,76.41
2023-03-26T04:37:17.225Z,76.67
2023-03-26T04:39:43.530Z,76.23
2023-03-26T04:42:11.176Z,77.04
2023-03-26T04:44:37.487Z,78.37
2023-03-26T04:47:03.771Z,77.72
2023-03-26T04:49:30.063Z,76.50
2023-03-26T04:51:56.392Z,77.00
2023-03-26T04:54:23.190Z,76.98
2023-03-26T04:56:59.269Z,77.07
2023-03-26T04:59:30.889Z,76.56
2023-03-26T05:01:58.062Z,76.81
2023-03-26T05:04:24.845Z,75.97
2023-03-26T05:06:51.195Z,76.18
2023-03-26T05:09:17.628Z,75.59
2023-03-26T05:11:43.915Z,75.16
2023-03-26T05:14:10.206Z,75.16
2023-03-26T05:16:38.316Z,74.89
2023-03-26T05:19:04.949Z,74.68
2023-03-26T05:21:31.256Z,74.29
2023-03-26T05:23:57.550Z,74.32
2023-03-26T05:26:24.002Z,74.55
2023-03-26T05:28:50.366Z,74.67
2023-03-26T05:31:19.527Z,74.39
2023-03-26T05:33:46.051Z,74.33
2023-03-26T05:36:13.499Z,74.74
2023-03-26T05:38:39.916Z,74.05
2023-03-26T05:41:07.935Z,74.13
2023-03-26T05:46:01.266Z,74.46
2023-03-26T05:48:27.950Z,73.79
2023-03-26T05:50:56.816Z,74.18
2023-03-26T05:53:25.507Z,74.12
2023-03-26T05:55:51.891Z,73.95
2023-03-26T05:58:18.265Z,74.07
2023-03-26T06:00:44.576Z,73.47
2023-03-26T06:03:10.954Z,73.92
2023-03-26T06:05:38.689Z,73.61
2023-03-26T06:08:05.326Z,74.31
2023-03-26T06:10:31.815Z,74.08
2023-03-26T06:12:58.207Z,74.30
2023-03-26T06:15:24.512Z,73.64
2023-03-26T06:17:50.860Z,73.38
2023-03-26T06:20:17.360Z,73.48
2023-03-26T06:22:43.661Z,73.23
2023-03-26T06:25:09.967Z,73.26
2023-03-26T06:27:36.351Z,72.98
2023-03-26T06:30:02.768Z,73.30
2023-03-26T06:32:29.067Z,73.30
2023-03-26T06:34:55.728Z,72.90
2023-03-26T06:37:22.006Z,73.26
2023-03-26T06:39:48.308Z,72.79
2023-03-26T06:42:14.607Z,72.84
2023-03-26T06:44:40.904Z,72.40
2023-03-26T06:47:07.325Z,72.50
2023-03-26T06:49:33.617Z,71.91
2023-03-26T06:52:00.041Z,72.08
2023-03-26T06:54:26.493Z,71.96
2023-03-26T06:56:52.952Z,71.05
2023-03-26T06:59:19.485Z,71.96
2023-03-26T07:01:46.772Z,72.20
2023-03-26T07:04:13.251Z,71.59
2023-03-26T07:06:39.722Z,71.83
2023-03-26T07:09:06.152Z,71.94
2023-03-26T07:11:32.478Z,71.60
2023-03-26T07:13:58.810Z,71.44
2023-03-26T07:16:25.461Z,71.42
2023-03-26T07:18:51.879Z,71.10
2023-03-26T07:21:18.405Z,71.49
2023-03-26T07:23:45.121Z,70.98
2023-03-26T07:26:30.536Z,71.05
2023-03-26T07:29:08.401Z,71.16
2023-03-26T07:32:00.322Z,71.13
2023-03-26T07:34:49.318Z,70.42
2023-03-26T07:37:30.220Z,70.39
2023-03-26T07:40:27.812Z,70.96
2023-03-26T07:43:16.107Z,71.10
2023-03-26T07:45:43.955Z,71.09
2023-03-26T07:48:21.335Z,69.82
2023-03-26T07:50:48.441Z,69.65
2023-03-26T07:53:15.269Z,69.85
2023-03-26T07:55:53.122Z,69.79
2023-03-26T07:58:52.354Z,68.90
2023-03-26T08:01:43.596Z,69.32
2023-03-26T08:04:39.318Z,69.57
2023-03-26T08:07:28.778Z,70.39
2023-03-26T08:10:20.723Z,70.10
2023-03-26T08:13:08.618Z,71.27
2023-03-26T08:16:00.118Z,70.75
2023-03-26T08:18:56.133Z,70.57
2023-03-26T08:21:28.159Z,70.49
2023-03-26T08:24:13.206Z,71.99
2023-03-26T08:27:01.785Z,71.97
2023-03-26T08:29:53.710Z,72.13
2023-03-26T08:32:20.737Z,72.33
2023-03-26T08:34:47.438Z,72.91
2023-03-26T08:37:13.746Z,72.99
2023-03-26T08:39:40.120Z,73.57
2023-03-26T08:42:25.738Z,75.90
2023-03-26T08:45:14.687Z,75.39
2023-03-26T08:48:10.452Z,75.89
2023-03-26T08:50:45.578Z,75.65
2023-03-26T08:53:24.096Z,76.64
2023-03-26T08:55:57.033Z,76.67
2023-03-26T08:58:53.842Z,76.45
2023-03-26T09:01:51.106Z,76.53
2023-03-26T09:04:42.187Z,76.08
2023-03-26T09:07:47.204Z,75.36
2023-03-26T09:10:35.617Z,75.44
2023-03-26T09:13:20.143Z,74.72
2023-03-26T09:16:11.350Z,75.03
2023-03-26T09:19:22.370Z,75.44
2023-03-26T09:22:29.046Z,76.40
2023-03-26T09:25:14.105Z,76.61
2023-03-26T09:27:53.955Z,77.09
2023-03-26T09:30:43.454Z,77.29
2023-03-26T09:33:50.160Z,77.50
2023-03-26T09:36:21.078Z,77.67
2023-03-26T09:39:05.830Z,78.08
2023-03-26T09:42:03.180Z,77.62
2023-03-26T09:44:41.847Z,76.94
2023-03-26T09:47:48.104Z,77.75
2023-03-26T09:50:36.989Z,77.67
2023-03-26T09:53:21.475Z,78.63
2023-03-26T09:55:58.708Z,78.38
2023-03-26T09:59:02.647Z,79.17
2023-03-26T10:01:47.509Z,79.14
2023-03-26T10:04:42.929Z,79.08
2023-03-26T10:07:21.588Z,79.09
2023-03-26T10:10:04.364Z,79.07
2023-03-26T10:12:42.470Z,78.58
2023-03-26T10:15:26.441Z,78.81
2023-03-26T10:18:38.430Z,79.10
2023-03-26T10:21:41.065Z,78.61
2023-03-26T10:24:47.021Z,78.73
2023-03-26T10:27:27.539Z,78.24
2023-03-26T10:30:07.971Z,76.79
2023-03-26T10:32:57.761Z,77.68
2023-03-26T10:35:42.194Z,78.22
2023-03-26T10:38:58.495Z,77.38
2023-03-26T10:41:43.328Z,77.29
2023-03-26T10:44:48.704Z,77.80
2023-03-26T10:48:02.093Z,76.66
2023-03-26T10:50:49.436Z,76.37
2023-03-26T10:53:43.546Z,75.62
2023-03-26T10:56:23.231Z,75.93
2023-03-26T10:58:50.097Z,76.51
2023-03-26T11:01:43.981Z,76.73
2023-03-26T11:04:26.429Z,76.50
2023-03-26T11:07:04.955Z,76.45
2023-03-26T11:09:48.952Z,75.41
2023-03-26T11:12:26.124Z,75.13
2023-03-26T11:15:13.853Z,75.87
2023-03-26T11:17:55.534Z,75.33
2023-03-26T11:20:37.265Z,75.63
2023-03-26T11:23:29.086Z,75.68
2023-03-26T11:26:07.736Z,75.02
2023-03-26T11:29:03.227Z,76.07
2023-03-26T11:31:51.471Z,75.42
2023-03-26T11:34:23.836Z,75.89
2023-03-26T11:36:54.234Z,75.04
2023-03-26T11:39:45.465Z,75.72
2023-03-26T11:42:15.826Z,74.71
2023-03-26T11:45:00.707Z,75.03
2023-03-26T11:47:47.959Z,72.59
2023-03-26T11:50:20.517Z,72.85
2023-03-26T11:52:47.167Z,72.78
2023-03-26T11:55:13.958Z,72.53
2023-03-26T11:57:49.333Z,73.17
2023-03-26T12:00:18.985Z,73.37
2023-03-26T12:02:48.748Z,72.42
2023-03-26T12:05:15.198Z,71.69
2023-03-26T12:07:53.396Z,71.87
2023-03-26T12:10:28.225Z,71.49
2023-03-26T12:12:57.935Z,70.30
2023-03-26T12:15:25.389Z,70.91
2023-03-26T12:17:53.147Z,69.79
2023-03-26T12:20:25.607Z,69.99
2023-03-26T12:22:57.510Z,69.78
2023-03-26T12:25:26.340Z,70.63
2023-03-26T12:28:02.074Z,68.74
2023-03-26T12:30:30.512Z,68.87
2023-03-26T12:32:59.969Z,68.02
2023-03-26T12:35:28.886Z,68.34
2023-03-26T12:38:13.162Z,68.20
2023-03-26T12:40:39.945Z,68.47
2023-03-26T12:44:54.486Z,67.01
2023-03-26T12:47:54.933Z,68.72
2023-03-26T12:49:07.593Z,68.55
2023-03-26T12:52:04.369Z,68.51
2023-03-26T12:54:42.441Z,68.24
2023-03-26T12:57:18.287Z,69.15
2023-03-26T12:59:52.622Z,68.41
2023-03-26T13:03:10.517Z,65.48
2023-03-26T13:06:08.933Z,65.75
2023-03-26T13:08:50.719Z,66.16
2023-03-26T13:11:30.004Z,62.60
2023-03-26T13:14:05.053Z,63.26
2023-03-26T13:16:40.020Z,63.82
2023-03-26T13:19:14.411Z,63.15
2023-03-26T13:22:02.570Z,62.07
2023-03-26T13:25:02.176Z,59.85
2023-03-26T13:27:53.544Z,59.79
2023-03-26T13:30:48.007Z,58.24
2023-03-26T13:33:31.682Z,57.62
2023-03-26T13:36:22.377Z,56.92
2023-03-26T13:39:02.054Z,58.11
2023-03-26T13:41:57.547Z,57.01
2023-03-26T13:44:40.437Z,52.42
2023-03-26T13:47:21.748Z,51.39
2023-03-26T13:50:14.210Z,50.91
2023-03-26T13:53:07.915Z,51.49
2023-03-26T13:55:52.967Z,49.70
2023-03-26T13:58:34.829Z,51.26
2023-03-26T14:01:09.701Z,51.68
2023-03-26T14:03:57.574Z,51.55
2023-03-26T14:06:38.915Z,52.66
2023-03-26T14:09:12.778Z,53.54
2023-03-26T14:11:42.094Z,54.12
2023-03-26T14:14:18.349Z,53.88
2023-03-26T14:16:52.410Z,55.15
2023-03-26T14:19:40.494Z,56.73
2023-03-26T14:22:22.046Z,62.24
2023-03-26T14:25:02.493Z,65.12
2023-03-26T14:28:19.356Z,64.71
2023-03-26T14:31:00.651Z,66.70
2023-03-26T14:33:57.425Z,67.11
2023-03-26T14:36:58.675Z,66.04
2023-03-26T14:39:53.753Z,65.02
2023-03-26T14:42:41.080Z,65.72
2023-03-26T14:45:40.948Z,65.47
2023-03-26T14:48:46.588Z,64.54
2023-03-26T14:51:28.182Z,63.61
2023-03-26T14:54:00.786Z,63.69
2023-03-26T14:56:45.932Z,64.35
2023-03-26T14:59:52.249Z,64.74
2023-03-26T15:02:55.650Z,63.79
2023-03-26T15:05:44.751Z,63.26
2023-03-26T15:08:41.222Z,62.02
2023-03-26T15:11:46.152Z,61.38
2023-03-26T15:14:44.226Z,60.83
2023-03-26T15:17:28.056Z,61.09
2023-03-26T15:20:32.795Z,58.17
2023-03-26T15:23:36.421Z,58.59
2023-03-26T15:26:37.978Z,59.72
2023-03-26T15:29:17.094Z,59.03
2023-03-26T15:32:01.096Z,58.64
2023-03-26T15:34:56.006Z,57.32
2023-03-26T15:37:43.776Z,52.10
2023-03-26T15:40:18.883Z,46.83
2023-03-26T15:43:02.387Z,45.73
2023-03-26T15:45:38.171Z,46.84
2023-03-26T15:48:11.365Z,47.22
2023-03-26T15:50:59.637Z,46.03
2023-03-26T15:53:53.383Z,47.05
2023-03-26T15:56:25.412Z,46.52
2023-03-26T15:59:15.530Z,47.52
2023-03-26T16:01:59.432Z,46.39
2023-03-26T16:04:51.689Z,44.86
2023-03-26T16:07:24.344Z,45.63
2023-03-26T16:10:02.885Z,46.23
2023-03-26T16:12:31.211Z,46.22
2023-03-26T16:15:06.573Z,46.09
2023-03-26T16:18:10.474Z,45.23
2023-03-26T16:20:55.280Z,46.56
2023-03-26T16:23:47.664Z,46.56
2023-03-26T16:26:40.407Z,46.31
2023-03-26T16:29:19.922Z,46.61
2023-03-26T16:32:11.274Z,47.26
2023-03-26T16:34:49.851Z,47.33
2023-03-26T16:37:31.409Z,48.51
2023-03-26T16:40:16.296Z,47.88
2023-03-26T16:43:17.965Z,48.89
2023-03-26T16:46:10.617Z,49.49
2023-03-26T16:48:56.617Z,50.12
2023-03-26T16:51:35.081Z,50.60
2023-03-26T16:54:16.763Z,50.88
2023-03-26T16:56:53.520Z,50.36
2023-03-26T16:59:41.690Z,50.46
2023-03-26T17:02:43.541Z,51.33
2023-03-26T17:05:25.107Z,51.59
2023-03-26T17:08:03.022Z,51.59
2023-03-26T17:10:38.366Z,51.85
2023-03-26T17:13:13.533Z,51.62
2023-03-26T17:16:06.058Z,52.36
2023-03-26T17:18:43.810Z,53.57
2023-03-26T17:21:24.470Z,54.28
2023-03-26T17:24:18.070Z,54.22
2023-03-26T17:27:02.309Z,53.98
2023-03-26T17:29:51.442Z,54.78
2023-03-26T17:32:17.942Z,55.06
2023-03-26T17:34:50.255Z,54.68
2023-03-26T17:37:16.562Z,54.98
2023-03-26T17:39:42.793Z,54.55
2023-03-26T17:42:26.254Z,54.83
2023-03-26T17:44:56.604Z,55.50
2023-03-26T17:47:26.183Z,54.99
2023-03-26T17:50:02.893Z,54.45
2023-03-26T17:52:45.732Z,55.43
2023-03-26T17:55:18.123Z,55.64
2023-03-26T17:57:47.249Z,55.85
2023-03-26T18:00:17.568Z,56.58
2023-03-26T18:02:56.013Z,57.46
2023-03-26T18:05:26.451Z,57.26
2023-03-26T18:08:14.785Z,57.67
2023-03-26T18:11:10.170Z,59.15
2023-03-26T18:14:10.352Z,58.87
2023-03-26T18:16:40.703Z,59.60
2023-03-26T18:19:14.229Z,61.15
2023-03-26T18:21:40.608Z,60.67
2023-03-26T18:24:13.306Z,62.30
2023-03-26T18:26:44.420Z,63.65
2023-03-26T18:29:27.524Z,63.54
2023-03-26T18:31:59.641Z,63.62
2023-03-26T18:34:29.327Z,64.47
2023-03-26T18:37:07.708Z,65.50
2023-03-26T18:39:34.254Z,66.33
2023-03-26T18:42:00.633Z,67.63
2023-03-26T18:44:27.441Z,66.32
2023-03-26T18:46:53.908Z,66.65
2023-03-26T18:49:21.014Z,66.89
2023-03-26T18:51:56.771Z,67.96
2023-03-26T18:54:24.861Z,68.85
2023-03-26T18:56:51.211Z,68.36
2023-03-26T18:59:26.906Z,69.17
2023-03-26T19:01:55.347Z,69.22
2023-03-26T19:04:21.945Z,70.13
2023-03-26T19:06:48.512Z,69.93
2023-03-26T19:09:30.378Z,70.37
2023-03-26T19:12:24.304Z,71.49
2023-03-26T19:15:03.753Z,71.36
2023-03-26T19:17:38.404Z,72.20
2023-03-26T19:20:07.711Z,71.16
2023-03-26T19:22:34.365Z,70.69
2023-03-26T19:25:02.539Z,71.71
2023-03-26T19:27:28.989Z,71.24
2023-03-26T19:29:55.349Z,71.25
2023-03-26T19:32:29.888Z,70.85
2023-03-26T19:34:59.498Z,72.14
2023-03-26T19:37:28.179Z,71.82
2023-03-26T19:40:00.701Z,72.88
2023-03-26T19:42:43.100Z,73.02
2023-03-26T19:45:17.991Z,72.51
2023-03-26T19:47:48.610Z,72.01
2023-03-26T19:50:27.537Z,71.25
2023-03-26T19:53:19.774Z,70.85
2023-03-26T19:56:06.319Z,71.65
2023-03-26T19:58:32.841Z,71.48
2023-03-26T20:00:59.383Z,71.79
2023-03-26T20:03:36.275Z,71.75
2023-03-26T20:06:02.601Z,72.16
2023-03-26T20:08:28.886Z,71.08
2023-03-26T20:10:57.059Z,71.50
2023-03-26T20:13:23.617Z,72.13
2023-03-26T20:16:21.469Z,71.56
2023-03-26T20:18:47.894Z,71.71
2023-03-26T20:21:14.338Z,71.44
2023-03-26T20:23:41.193Z,71.47
2023-03-26T20:26:12.537Z,71.06
2023-03-26T20:28:47.856Z,71.51
2023-03-26T20:31:17.721Z,71.05
2023-03-26T20:33:44.057Z,70.99
2023-03-26T20:36:12.769Z,71.72
2023-03-26T20:38:40.549Z,71.69
2023-03-26T20:41:12.051Z,71.84
2023-03-26T20:43:38.401Z,71.87
2023-03-26T20:46:04.906Z,72.13
2023-03-26T20:48:31.212Z,71.73
2023-03-26T20:50:57.752Z,71.82
2023-03-26T20:53:24.206Z,71.75
2023-03-26T20:55:51.612Z,71.99
2023-03-26T20:58:20.065Z,71.59
2023-03-26T21:00:59.556Z,71.75
2023-03-26T21:03:25.982Z,72.05
2023-03-26T21:05:52.330Z,71.94
2023-03-26T21:08:19.715Z,72.36
2023-03-26T21:10:47.476Z,71.17
2023-03-26T21:13:38.835Z,72.51
2023-03-26T21:16:06.052Z,71.29
2023-03-26T21:18:32.595Z,71.43
2023-03-26T21:21:26.337Z,72.11
2023-03-26T21:24:00.427Z,71.06
2023-03-26T21:26:31.555Z,71.28
2023-03-26T21:28:58.021Z,71.54
2023-03-26T21:31:24.627Z,71.60
2023-03-26T21:33:51.248Z,70.88
2023-03-26T21:36:19.211Z,72.00
2023-03-26T21:38:46.222Z,72.05
2023-03-26T21:41:44.974Z,71.41
2023-03-26T21:44:11.282Z,71.95
2023-03-26T21:46:41.390Z,72.52
2023-03-26T21:49:08.022Z,71.75
2023-03-26T21:51:34.716Z,71.28
2023-03-26T21:54:01.329Z,71.88
2023-03-26T21:56:30.395Z,71.45
2023-03-26T21:59:24.758Z,71.45
2023-03-26T22:02:07.909Z,71.58
2023-03-26T22:04:36.909Z,71.44
2023-03-26T22:07:19.296Z,70.89
2023-03-26T22:09:45.926Z,70.75
2023-03-26T22:12:12.546Z,70.41
2023-03-26T22:14:39.028Z,70.66
2023-03-26T22:17:05.657Z,70.74
2023-03-26T22:19:31.984Z,71.48
2023-03-26T22:21:58.324Z,71.55
2023-03-26T22:24:24.678Z,71.27
2023-03-26T22:26:51.008Z,70.99
2023-03-26T22:29:17.365Z,71.54
2023-03-26T22:31:43.866Z,71.70
2023-03-26T22:34:10.297Z,71.97
2023-03-26T22:36:38.949Z,71.45
2023-03-26T22:39:06.557Z,71.61
2023-03-26T22:41:32.963Z,71.63
2023-03-26T22:44:01.489Z,71.90
2023-03-26T22:46:32.862Z,72.06
2023-03-26T22:48:59.396Z,72.40
2023-03-26T22:51:25.760Z,72.35
2023-03-26T22:53:52.071Z,72.21
2023-03-26T22:56:18.498Z,72.24
2023-03-26T22:58:45.100Z,72.71
2023-03-26T23:01:18.374Z,73.09
2023-03-26T23:03:45.712Z,73.26
2023-03-26T23:06:12.936Z,73.01
2023-03-26T23:08:40.105Z,73.48
2023-03-26T23:11:09.541Z,73.80
2023-03-26T23:13:35.825Z,74.17
2023-03-26T23:16:02.194Z,74.54
2023-03-26T23:18:28.760Z,73.44
2023-03-26T23:20:57.242Z,74.54
2023-03-26T23:23:29.320Z,75.38
2023-03-26T23:26:03.406Z,74.92
2023-03-26T23:28:31.877Z,75.88
2023-03-26T23:31:00.172Z,74.76
2023-03-26T23:33:29.073Z,75.34
2023-03-26T23:35:56.265Z,76.75
2023-03-26T23:38:22.605Z,77.47
2023-03-26T23:40:57.448Z,76.27
2023-03-26T23:43:25.406Z,76.95
2023-03-26T23:45:52.546Z,77.32
2023-03-26T23:48:21.389Z,77.83
2023-03-26T23:50:48.981Z,77.22
2023-03-26T23:53:15.686Z,76.63
2023-03-26T23:55:45.040Z,78.51
2023-03-26T23:58:11.416Z,77.53
